Time;durP1;ratioP1;P1;durP2;ratioP2;P2;SDS_P1;SDS_P2;PMS_P1;PMS_P2;Temp;Humidity;BMP_temperature;BMP_pressure;BME280_temperature;BME280_humidity;BME280_pressure;Samples;Min_cycle;Max_cycle;Signal;HPM_P1;HPM_P2
2024/03/07 00:04:07;;;;;;;1999.90;999.90;;;;;;;3.88;100.00;102497.31;10504901;28;20060;-68
2024/03/07 00:09:09;;;;;;;1999.90;999.90;;;;;;;3.56;100.00;102493.91;10504967;28;20198;-68
2024/03/07 00:14:12;;;;;;;1999.90;999.90;;;;;;;3.54;100.00;102491.31;10504787;28;20060;-68
2024/03/07 00:19:14;;;;;;;1999.90;999.90;;;;;;;3.51;100.00;102499.97;10486791;28;20597;-68
2024/03/07 00:24:17;;;;;;;1999.90;999.90;;;;;;;3.47;100.00;102507.72;10503002;28;20554;-68
2024/03/07 00:29:20;;;;;;;1999.90;999.90;;;;;;;3.24;100.00;102507.72;10503921;28;20127;-68
2024/03/07 00:34:23;;;;;;;1999.90;999.90;;;;;;;3.49;100.00;102506.84;10504065;28;20044;-68
2024/03/07 00:39:27;;;;;;;1999.90;999.90;;;;;;;3.65;100.00;102497.34;10503806;28;20059;-68
2024/03/07 00:44:30;;;;;;;1999.90;999.90;;;;;;;3.46;100.00;102495.63;10502177;28;20127;-68
2024/03/07 00:49:32;;;;;;;1999.90;999.90;;;;;;;3.54;100.00;102499.94;10502032;28;20048;-68
2024/03/07 00:54:35;;;;;;;1999.90;999.90;;;;;;;3.53;100.00;102500.81;10502979;28;20127;-68
2024/03/07 00:59:37;;;;;;;1999.90;999.90;;;;;;;3.43;100.00;102495.63;10501506;28;20593;-68
2024/03/07 01:04:40;;;;;;;1999.90;999.90;;;;;;;3.49;100.00;102487.84;10484901;28;20045;-68
2024/03/07 01:09:42;;;;;;;1999.90;999.90;;;;;;;3.65;100.00;102492.16;10502662;28;20110;-68
2024/03/07 01:14:45;;;;;;;1999.90;999.90;;;;;;;3.42;100.00;102479.22;10501329;28;20119;-68
2024/03/07 01:19:48;;;;;;;1999.90;999.90;;;;;;;3.33;100.00;102482.69;10502218;28;20056;-69
2024/03/07 01:24:50;;;;;;;1999.90;999.90;;;;;;;3.49;100.00;102480.09;10484741;28;20044;-68
2024/03/07 01:29:53;;;;;;;1999.90;999.90;;;;;;;3.37;100.00;102480.97;10501633;28;20078;-68
2024/03/07 01:34:56;;;;;;;1999.90;999.90;;;;;;;3.06;100.00;102477.50;10501542;28;20055;-69
2024/03/07 01:39:58;;;;;;;1999.90;999.90;;;;;;;3.29;100.00;102477.50;10500371;28;20067;-69
2024/03/07 01:45:00;;;;;;;1999.90;999.90;;;;;;;3.31;100.00;102474.06;10500835;28;20561;-68
2024/03/07 01:50:03;;;;;;;1999.90;999.90;;;;;;;3.08;100.00;102473.19;10499121;28;20567;-68
2024/03/07 01:55:07;;;;;;;1999.90;999.90;;;;;;;3.17;100.00;102474.03;10499257;28;20056;-68
2024/03/07 02:00:10;;;;;;;1999.90;999.90;;;;;;;2.97;100.00;102475.75;10500796;28;20076;-68
2024/03/07 02:05:13;;;;;;;1999.90;999.90;;;;;;;3.17;100.00;102468.00;10499464;28;20048;-68
2024/03/07 02:10:17;;;;;;;1999.90;999.90;;;;;;;3.06;100.00;102467.13;10500220;28;20059;-68
2024/03/07 02:15:19;;;;;;;1999.90;999.90;;;;;;;2.91;100.00;102460.25;10497765;28;20055;-68
2024/03/07 02:20:22;;;;;;;1999.90;999.90;;;;;;;2.75;100.00;102461.94;10498559;28;20083;-68
2024/03/07 02:25:24;;;;;;;1999.90;999.90;;;;;;;3.00;100.00;102465.41;10497994;28;20048;-68
2024/03/07 02:30:27;;;;;;;1999.90;999.90;;;;;;;2.84;100.00;102456.78;10498365;28;20072;-68
2024/03/07 02:35:29;;;;;;;1999.90;999.90;;;;;;;3.28;100.00;102455.09;10499117;28;20046;-68
2024/03/07 02:40:32;;;;;;;1999.90;999.90;;;;;;;3.30;100.00;102448.19;10498545;28;20098;-68
2024/03/07 02:45:35;;;;;;;1999.90;999.90;;;;;;;3.27;100.00;102446.44;10498513;28;20397;-68
2024/03/07 02:50:40;;;;;;;1999.90;999.90;;;;;;;3.13;100.00;102441.28;10498522;28;20056;-68
2024/03/07 02:55:42;;;;;;;1999.90;999.90;;;;;;;3.23;100.00;102436.97;10497170;28;20136;-68
2024/03/07 03:00:45;;;;;;;1999.90;999.90;;;;;;;3.03;100.00;102436.97;10497917;28;20052;-68
2024/03/07 03:05:47;;;;;;;1999.90;999.90;;;;;;;3.15;100.00;102426.59;10498049;28;20136;-68
2024/03/07 03:10:53;;;;;;;1999.90;999.90;;;;;;;2.89;100.00;102425.72;10498045;28;20049;-68
2024/03/07 03:15:56;;;;;;;1999.90;999.90;;;;;;;3.13;100.00;102420.56;10480481;28;20075;-68
2024/03/07 03:20:58;;;;;;;1999.90;999.90;;;;;;;2.85;100.00;102418.84;10496650;28;20486;-68
2024/03/07 03:26:01;;;;;;;1999.90;999.90;;;;;;;2.73;100.00;102417.09;10495360;28;20127;-68
2024/03/07 03:31:04;;;;;;;1999.90;999.90;;;;;;;2.83;100.00;102408.50;10496277;28;20049;-68
2024/03/07 03:36:07;;;;;;;1999.90;999.90;;;;;;;2.58;100.00;102416.22;10497305;28;20090;-68
2024/03/07 03:41:09;;;;;;;1999.90;999.90;;;;;;;2.72;100.00;102418.84;10497600;28;20054;-68
2024/03/07 03:46:12;;;;;;;1999.90;999.90;;;;;;;2.67;100.00;102414.50;10497642;28;20504;-68
2024/03/07 03:51:15;;;;;;;1999.90;999.90;;;;;;;2.42;100.00;102420.50;10496774;28;20481;-69
2024/03/07 03:56:17;;;;;;;1999.90;999.90;;;;;;;2.54;100.00;102411.91;10495817;28;20068;-68
2024/03/07 04:01:20;;;;;;;1999.90;999.90;;;;;;;2.48;100.00;102417.06;10495286;28;20501;-68
2024/03/07 04:06:23;;;;;;;1999.90;999.90;;;;;;;2.37;100.00;102408.41;10496802;28;20048;-68
2024/03/07 04:11:26;;;;;;;1999.90;999.90;;;;;;;2.46;100.00;102416.19;10496797;28;20127;-68
2024/03/07 04:16:29;;;;;;;1999.90;999.90;;;;;;;2.54;100.00;102408.44;10496723;28;20052;-68
2024/03/07 04:21:31;;;;;;;1999.90;999.90;;;;;;;2.61;100.00;102405.03;10496561;28;20083;-68
2024/03/07 04:26:34;;;;;;;1999.90;999.90;;;;;;;2.39;100.00;102397.22;10496073;28;20052;-68
2024/03/07 04:31:37;;;;;;;1999.90;999.90;;;;;;;2.87;100.00;102399.00;10496176;28;20566;-68
2024/03/07 04:36:39;;;;;;;1999.90;999.90;;;;;;;2.55;100.00;102395.50;10498072;28;20525;-68
2024/03/07 04:41:42;;;;;;;1999.90;999.90;;;;;;;2.39;100.00;102404.97;10503891;28;20044;-68
2024/03/07 04:46:44;;;;;;;1999.90;999.90;;;;;;;2.64;100.00;102399.84;10503489;28;20044;-67
2024/03/07 04:51:47;;;;;;;1999.90;999.90;;;;;;;2.38;100.00;102403.25;10501823;28;20091;-68
2024/03/07 04:56:50;;;;;;;1999.90;999.90;;;;;;;2.56;100.00;102396.41;10503040;28;20106;-68
2024/03/07 05:01:53;;;;;;;1999.90;999.90;;;;;;;2.49;100.00;102392.06;10501631;28;20106;-67
2024/03/07 05:06:55;;;;;;;1999.90;999.90;;;;;;;2.29;100.00;102399.78;10495933;22;20084;-64
2024/03/07 05:11:58;;;;;;;1999.90;999.90;;;;;;;2.31;100.00;102405.81;10378813;28;20483;-63
2024/03/07 05:17:08;;;;;;;1999.90;999.90;;;;;;;2.25;100.00;102404.06;10378525;28;20049;-63
2024/03/07 05:22:15;;;;;;;1999.90;999.90;;;;;;;2.17;100.00;102400.59;10378461;28;20522;-63
2024/03/07 05:27:17;;;;;;;1999.90;999.90;;;;;;;2.25;100.00;102408.38;10378256;28;20486;-63
2024/03/07 05:32:25;;;;;;;1999.90;999.90;;;;;;;2.25;100.00;102410.97;10378000;28;20104;-62
2024/03/07 05:37:28;;;;;;;1999.90;999.90;;;;;;;2.22;100.00;102406.66;10376781;28;20042;-63
2024/03/07 05:42:31;;;;;;;1999.90;999.90;;;;;;;2.02;100.00;102404.84;10377803;28;20054;-63
2024/03/07 05:47:34;;;;;;;1999.90;999.90;;;;;;;2.00;100.00;102409.16;10376226;28;20046;-63
2024/03/07 05:52:37;;;;;;;1999.90;999.90;;;;;;;1.80;100.00;102401.31;10376150;28;20049;-63
2024/03/07 05:57:39;;;;;;;1999.90;999.90;;;;;;;2.00;100.00;102401.41;10376980;28;20380;-63
2024/03/07 06:02:46;;;;;;;1999.90;999.90;;;;;;;2.01;100.00;102408.28;10375610;28;20049;-63
2024/03/07 06:07:49;;;;;;;1999.90;999.90;;;;;;;1.97;100.00;102414.31;10375444;28;20062;-63
2024/03/07 06:12:53;;;;;;;1999.90;999.90;;;;;;;2.02;100.00;102409.16;10376685;28;20054;-63
2024/03/07 06:18:13;;;;;;;1999.90;999.90;;;;;;;2.17;100.00;102406.63;10376692;28;20047;-63
2024/03/07 06:23:16;;;;;;;1999.90;999.90;;;;;;;1.91;100.00;102416.84;10374966;28;20557;-63
2024/03/07 06:28:19;;;;;;;1999.90;999.90;;;;;;;1.90;100.00;102420.31;10374897;28;20050;-64
2024/03/07 06:33:22;;;;;;;1999.90;999.90;;;;;;;1.97;100.00;102416.91;10375749;28;20054;-63
2024/03/07 06:38:28;;;;;;;1999.90;999.90;;;;;;;2.16;100.00;102417.81;10374550;28;20050;-64
2024/03/07 06:43:30;;;;;;;1999.90;999.90;;;;;;;1.95;100.00;102415.16;10375543;28;20104;-64
2024/03/07 06:48:33;;;;;;;1999.90;999.90;;;;;;;2.13;100.00;102417.81;10375036;28;20406;-64
2024/03/07 06:53:35;;;;;;;1999.90;999.90;;;;;;;2.22;100.00;102417.84;10375034;28;20057;-64
2024/03/07 06:58:38;;;;;;;1999.90;999.90;;;;;;;2.65;100.00;102416.22;10373371;28;20454;-64
2024/03/07 07:03:43;;;;;;;1999.90;999.90;;;;;;;3.01;100.00;102409.34;10374961;28;20127;-64
2024/03/07 07:08:45;;;;;;;1999.90;999.90;;;;;;;3.39;100.00;102408.47;10374055;28;20141;-64
2024/03/07 07:13:48;;;;;;;1999.90;999.90;;;;;;;3.56;100.00;102405.84;10373154;28;20491;-64
2024/03/07 07:18:52;;;;;;;1999.90;999.90;;;;;;;3.59;100.00;102400.66;10373473;28;20133;-64
2024/03/07 07:23:54;;;;;;;1999.90;999.90;;;;;;;4.02;100.00;102403.97;10374243;28;20473;-64
2024/03/07 07:28:57;;;;;;;1999.90;999.90;;;;;;;4.25;100.00;102406.44;10374095;28;20077;-64
2024/03/07 07:34:00;;;;;;;1999.90;999.90;;;;;;;4.34;100.00;102396.88;10373928;28;20133;-64
2024/03/07 07:39:03;;;;;;;1999.90;999.90;;;;;;;4.72;100.00;102394.03;10374024;28;20056;-64
2024/03/07 07:44:05;;;;;;;1999.90;999.90;;;;;;;5.19;100.00;102394.50;10372810;28;20085;-64
2024/03/07 07:49:08;;;;;;;1999.90;999.90;;;;;;;5.19;100.00;102382.41;10372550;28;20074;-64
2024/03/07 07:54:11;;;;;;;1999.90;999.90;;;;;;;5.29;100.00;102387.50;10373609;28;20073;-64
2024/03/07 07:59:14;;;;;;;1999.90;999.90;;;;;;;5.43;100.00;102393.44;10373249;28;20398;-64
2024/03/07 08:04:16;;;;;;;1999.90;999.90;;;;;;;5.84;100.00;102391.25;10371975;28;20487;-70
2024/03/07 08:09:19;;;;;;;1999.90;999.90;;;;;;;6.23;99.40;102383.84;10372835;28;20060;-68
2024/03/07 08:14:22;;;;;;;1999.90;999.90;;;;;;;6.48;98.01;102380.00;10380263;28;20053;-68
2024/03/07 08:19:24;;;;;;;1999.90;999.90;;;;;;;6.64;95.59;102378.03;10381020;28;20403;-68
2024/03/07 08:24:27;;;;;;;1999.90;999.90;;;;;;;7.50;92.74;102380.88;10363439;28;20084;-68
2024/03/07 08:29:30;;;;;;;1999.90;999.90;;;;;;;7.43;90.16;102380.13;10380559;28;20426;-68
2024/03/07 08:34:32;;;;;;;1999.90;999.90;;;;;;;7.78;88.05;102389.03;10380225;28;20077;-68
2024/03/07 08:39:35;;;;;;;1999.90;999.90;;;;;;;8.27;88.82;102391.47;10380556;28;20078;-68
2024/03/07 08:44:37;;;;;;;1999.90;999.90;;;;;;;8.26;85.06;102377.56;10379769;28;20081;-68
2024/03/07 08:49:39;;;;;;;1999.90;999.90;;;;;;;8.64;81.90;102378.47;10379785;28;20046;-68
2024/03/07 08:54:43;;;;;;;1999.90;999.90;;;;;;;9.40;83.19;102373.94;10379756;28;20096;-67
2024/03/07 08:59:47;;;;;;;1999.90;999.90;;;;;;;9.26;81.48;102369.06;10379377;28;20049;-67
2024/03/07 09:04:50;;;;;;;1999.90;999.90;;;;;;;9.86;78.48;102367.38;10378300;28;20050;-68
2024/03/07 09:09:52;;;;;;;1999.90;999.90;;;;;;;10.58;77.67;102366.97;10378859;28;20384;-68
2024/03/07 09:14:58;;;;;;;1999.90;999.90;;;;;;;11.29;75.85;102354.09;10377789;28;20053;-68
2024/03/07 09:20:00;;;;;;;1999.90;999.90;;;;;;;10.19;74.89;102359.44;10379113;28;20056;-67
2024/03/07 09:25:03;;;;;;;1999.90;999.90;;;;;;;11.94;72.08;102359.63;10378395;28;20061;-67
2024/03/07 09:30:11;;;;;;;1999.90;999.90;;;;;;;12.02;69.66;102355.78;10378435;28;20128;-67
2024/03/07 09:35:16;;;;;;;1999.90;999.90;;;;;;;13.12;69.40;102339.03;10378116;28;20052;-68
2024/03/07 09:40:24;;;;;;;1999.90;999.90;;;;;;;13.76;66.39;102323.94;10377870;28;20054;-67
2024/03/07 09:45:34;;;;;;;1999.90;999.90;;;;;;;12.47;64.17;102326.91;10377682;28;20054;-68
2024/03/07 09:50:38;;;;;;;1999.90;999.90;;;;;;;14.19;63.67;102319.25;10376334;28;20470;-68
2024/03/07 09:55:40;;;;;;;1999.90;999.90;;;;;;;14.33;61.36;102323.00;10376285;28;20081;-68
2024/03/07 10:00:43;;;;;;;1999.90;999.90;;;;;;;15.29;60.16;102322.53;10377257;28;20112;-68
2024/03/07 10:05:46;;;;;;;1999.90;999.90;;;;;;;14.84;60.44;102329.25;10375529;28;20076;-68
2024/03/07 10:10:50;;;;;;;1999.90;999.90;;;;;;;15.84;58.16;102325.78;10358923;28;20157;-68
2024/03/07 10:15:53;;;;;;;1999.90;999.90;;;;;;;14.44;59.36;102320.69;10375271;28;20046;-68
2024/03/07 10:20:56;;;;;;;1999.90;999.90;;;;;;;15.47;56.27;102319.84;10376392;28;20064;-68
2024/03/07 10:25:58;;;;;;;1999.90;999.90;;;;;;;13.87;56.37;102319.03;10374740;28;20124;-68
2024/03/07 10:31:03;;;;;;;1999.90;999.90;;;;;;;14.85;56.72;102305.44;10375506;28;20081;-68
2024/03/07 10:36:09;;;;;;;1999.90;999.90;;;;;;;16.47;56.47;102307.19;10375202;28;20542;-68
2024/03/07 10:41:12;;;;;;;1999.90;999.90;;;;;;;16.13;54.93;102310.94;10375659;28;20567;-68
2024/03/07 10:46:16;;;;;;;1999.90;999.90;;;;;;;15.28;54.48;102304.13;10375162;28;20137;-68
2024/03/07 10:51:25;;;;;;;1999.90;999.90;;;;;;;14.41;56.49;102299.78;10374240;28;20056;-68
2024/03/07 10:56:41;;;;;;;1999.90;999.90;;;;;;;15.37;54.84;102304.50;10375785;28;20121;-68
2024/03/07 11:01:54;;;;;;;1999.90;999.90;;;;;;;13.44;59.27;102305.22;10374643;28;20056;-68
2024/03/07 11:06:58;;;;;;;1999.90;999.90;;;;;;;12.71;58.86;102297.00;10373604;28;20064;-68
2024/03/07 11:12:06;;;;;;;1999.90;999.90;;;;;;;15.86;56.07;102287.78;10374684;28;20112;-68
2024/03/07 11:17:09;;;;;;;1999.90;999.90;;;;;;;18.22;52.36;102269.97;10374844;28;20054;-68
2024/03/07 11:22:15;;;;;;;1999.90;999.90;;;;;;;16.08;53.55;102273.34;10374521;28;20157;-68
2024/03/07 11:27:18;;;;;;;1999.90;999.90;;;;;;;17.49;50.90;102258.72;10372888;28;20053;-68
2024/03/07 11:32:21;;;;;;;1999.90;999.90;;;;;;;16.49;51.29;102255.09;10372748;28;20482;-68
2024/03/07 11:37:48;;;;;;;1999.90;999.90;;;;;;;17.48;49.16;102246.44;10373508;28;20046;-68
2024/03/07 11:42:59;;;;;;;1999.90;999.90;;;;;;;17.11;48.81;102242.59;10373995;28;20046;-68
2024/03/07 11:48:09;;;;;;;1999.90;999.90;;;;;;;16.77;49.70;102240.19;10378406;28;20565;-68
2024/03/07 11:53:12;;;;;;;1999.90;999.90;;;;;;;17.14;51.27;102226.53;10381896;28;20384;-68
2024/03/07 11:58:16;;;;;;;1999.90;999.90;;;;;;;18.25;48.81;102222.06;10380546;28;20125;-68
2024/03/07 12:03:25;;;;;;;1999.90;999.90;;;;;;;19.04;46.00;102214.88;10380402;28;20081;-68
2024/03/07 12:08:29;;;;;;;1999.90;999.90;;;;;;;19.67;45.86;102200.53;10380377;28;20046;-68
2024/03/07 12:13:32;;;;;;;1999.90;999.90;;;;;;;18.36;46.46;102207.13;10381333;28;20052;-68
2024/03/07 12:18:36;;;;;;;1999.90;999.90;;;;;;;19.18;45.32;102195.28;10380897;28;20465;-68
2024/03/07 12:23:40;;;;;;;1999.90;999.90;;;;;;;18.37;45.58;102182.31;10379622;28;20046;-68
2024/03/07 12:28:44;;;;;;;1999.90;999.90;;;;;;;18.24;48.22;102184.09;10379259;28;20483;-67
2024/03/07 12:33:51;;;;;;;1999.90;999.90;;;;;;;18.31;47.75;102180.06;10379287;28;20057;-68
2024/03/07 12:38:56;;;;;;;1999.90;999.90;;;;;;;18.71;47.49;102166.69;10379624;28;20057;-68
2024/03/07 12:43:59;;;;;;;1999.90;999.90;;;;;;;16.88;49.47;102165.53;10380167;28;20205;-68
2024/03/07 12:49:01;;;;;;;1999.90;999.90;;;;;;;15.80;51.50;102153.44;10379896;28;20159;-68
2024/03/07 12:54:04;;;;;;;1999.90;999.90;;;;;;;15.30;53.60;102151.84;10380102;28;20054;-68
2024/03/07 12:59:08;;;;;;;1999.90;999.90;;;;;;;16.56;52.33;102136.63;10379406;28;20042;-68
2024/03/07 13:04:11;;;;;;;1999.90;999.90;;;;;;;14.71;53.28;102144.50;10379383;28;20046;-64
2024/03/07 13:09:14;;;;;;;1999.90;999.90;;;;;;;16.25;52.19;102140.25;10379013;28;20054;-64
2024/03/07 13:14:16;;;;;;;1999.90;999.90;;;;;;;16.26;50.80;102132.25;10379099;28;20058;-64
2024/03/07 13:19:20;;;;;;;1999.90;999.90;;;;;;;17.80;50.55;102129.59;10377509;28;20045;-64
2024/03/07 13:24:24;;;;;;;1999.90;999.90;;;;;;;14.41;56.50;102141.69;10378479;28;20132;-64
2024/03/07 13:29:26;;;;;;;1999.90;999.90;;;;;;;14.05;57.37;102127.66;10378120;28;20077;-64
2024/03/07 13:34:29;;;;;;;1999.90;999.90;;;;;;;13.04;59.33;102129.94;10378130;28;20077;-64
2024/03/07 13:39:32;;;;;;;1999.90;999.90;;;;;;;12.96;61.66;102125.03;10377831;28;20417;-64
2024/03/07 13:44:34;;;;;;;1999.90;999.90;;;;;;;12.60;63.26;102116.13;10377745;28;20046;-64
2024/03/07 13:49:38;;;;;;;1999.90;999.90;;;;;;;12.89;62.93;102116.56;10377641;28;20104;-64
2024/03/07 13:54:40;;;;;;;1999.90;999.90;;;;;;;12.33;63.51;102114.75;10377354;28;20160;-64
2024/03/07 14:00:20;;;;;;;1999.90;999.90;;;;;;;11.83;64.88;102102.81;10377214;28;20046;-64
2024/03/07 14:05:23;;;;;;;1999.90;999.90;;;;;;;12.43;63.73;102097.66;10377116;28;20074;-63
2024/03/07 14:10:53;;;;;;;1999.90;999.90;;;;;;;12.69;63.31;102091.22;10375655;28;20050;-64
2024/03/07 14:16:39;;;;;;;1999.90;999.90;;;;;;;13.77;62.11;102091.38;10376683;28;20057;-64
2024/03/07 14:22:27;;;;;;;1999.90;999.90;;;;;;;15.73;57.29;102062.28;10376271;28;20489;-64
2024/03/07 14:27:35;;;;;;;1999.90;999.90;;;;;;;14.53;55.10;102067.25;10342437;28;20046;-64
2024/03/07 14:32:38;;;;;;;1999.90;999.90;;;;;;;16.95;52.61;102061.03;10376145;28;20050;-64
2024/03/07 14:38:02;;;;;;;1999.90;999.90;;;;;;;16.31;53.23;102053.53;10376027;28;20057;-64
2024/03/07 14:43:06;;;;;;;1999.90;999.90;;;;;;;14.09;56.89;102066.03;10375668;28;20088;-64
2024/03/07 14:48:09;;;;;;;1999.90;999.90;;;;;;;12.53;60.27;102058.69;10375474;28;20057;-64
2024/03/07 14:53:13;;;;;;;1999.90;999.90;;;;;;;12.53;61.73;102053.44;10374265;28;20077;-64
2024/03/07 14:58:16;;;;;;;1999.90;999.90;;;;;;;12.86;59.04;102058.91;10375465;28;20085;-63
2024/03/07 15:03:19;;;;;;;1999.90;999.90;;;;;;;12.78;60.86;102045.28;10374788;28;20096;-64
2024/03/07 15:08:23;;;;;;;1999.90;999.90;;;;;;;14.22;56.35;102036.41;10373056;28;20049;-64
2024/03/07 15:13:27;;;;;;;1999.90;999.90;;;;;;;12.90;60.01;102042.06;10374710;28;20074;-63
2024/03/07 15:18:30;;;;;;;1999.90;999.90;;;;;;;12.51;60.68;102016.75;10374364;28;20074;-64
2024/03/07 15:23:33;;;;;;;1999.90;999.90;;;;;;;11.92;61.47;102015.00;10373598;28;20126;-64
2024/03/07 15:28:36;;;;;;;1999.90;999.90;;;;;;;11.91;62.48;102014.16;10374022;28;20049;-63
2024/03/07 15:33:38;;;;;;;1999.90;999.90;;;;;;;12.31;60.31;102001.06;10373924;28;20060;-64
2024/03/07 15:38:41;;;;;;;1999.90;999.90;;;;;;;11.70;63.04;102008.91;10374240;28;20100;-63
2024/03/07 15:43:44;;;;;;;1999.90;999.90;;;;;;;12.07;62.37;101985.47;10373779;28;20056;-63
2024/03/07 15:48:48;;;;;;;1999.90;999.90;;;;;;;16.46;52.12;101979.53;10373822;28;20050;-63
2024/03/07 15:53:51;;;;;;;1999.90;999.90;;;;;;;13.82;55.54;101991.09;10373721;28;20049;-64
2024/03/07 15:58:54;;;;;;;1999.90;999.90;;;;;;;11.22;63.14;101982.97;10374099;28;20046;-63
2024/03/07 16:03:57;;;;;;;1999.90;999.90;;;;;;;11.88;64.06;101978.38;10373600;28;20112;-63
2024/03/07 16:08:59;;;;;;;1999.90;999.90;;;;;;;11.73;63.23;101971.16;10373093;28;20049;-64
2024/03/07 16:14:02;;;;;;;1999.90;999.90;;;;;;;11.39;63.64;101969.16;10372737;28;20089;-64
2024/03/07 16:19:05;;;;;;;1999.90;999.90;;;;;;;10.88;65.53;101961.59;10372882;28;20056;-64
2024/03/07 16:24:08;;;;;;;1999.90;999.90;;;;;;;10.38;66.95;101948.72;10372989;28;20053;-63
2024/03/07 16:29:11;;;;;;;1999.90;999.90;;;;;;;10.28;67.67;101955.19;10372722;28;20050;-64
2024/03/07 16:34:14;;;;;;;1999.90;999.90;;;;;;;10.08;67.24;101950.69;10378952;28;20054;-63
2024/03/07 16:39:16;;;;;;;1999.90;999.90;;;;;;;9.89;68.05;101942.66;10380401;28;20046;-63
2024/03/07 16:44:22;;;;;;;1999.90;999.90;;;;;;;9.81;68.72;101942.94;10379923;28;20045;-64
2024/03/07 16:49:26;;;;;;;1999.90;999.90;;;;;;;9.39;68.64;101948.75;10379749;28;20046;-64
2024/03/07 17:07:22;;;;;;;1999.90;999.90;;;;;;;8.93;72.97;101941.53;10377875;28;20046;-63
2024/03/07 17:12:25;;;;;;;1999.90;999.90;;;;;;;8.73;74.42;101944.75;10378829;28;20384;-63
2024/03/07 17:17:27;;;;;;;1999.90;999.90;;;;;;;8.64;75.54;101950.28;10379047;28;20562;-63
2024/03/07 17:22:30;;;;;;;1999.90;999.90;;;;;;;8.65;75.45;101951.97;10398195;22;20111;-67
2024/03/07 17:27:33;;;;;;;1999.90;999.90;;;;;;;8.60;76.61;101950.44;10418292;28;20053;-67
2024/03/07 17:32:38;;;;;;;1999.90;999.90;;;;;;;8.53;77.97;101944.53;10418803;28;20088;-67
2024/03/07 17:37:44;;;;;;;1999.90;999.90;;;;;;;8.44;77.66;101953.50;10417792;28;20517;-67
2024/03/07 17:42:50;;;;;;;1999.90;999.90;;;;;;;8.30;77.38;101953.00;10416950;28;20057;-67
2024/03/07 17:47:53;;;;;;;1999.90;999.90;;;;;;;8.31;76.36;101955.56;10417355;28;20124;-67
2024/03/07 17:53:01;;;;;;;1999.90;999.90;;;;;;;8.18;77.24;101960.28;10417182;28;20409;-67
2024/03/07 17:58:03;;;;;;;1999.90;999.90;;;;;;;8.10;76.72;101961.41;10416895;28;20092;-67
2024/03/07 18:03:08;;;;;;;1999.90;999.90;;;;;;;7.93;77.28;101964.50;10417823;28;20409;-67
2024/03/07 18:08:16;;;;;;;1999.90;999.90;;;;;;;7.85;77.61;101956.03;10417342;28;20072;-67
2024/03/07 18:13:21;;;;;;;1999.90;999.90;;;;;;;7.66;77.71;101966.94;10417643;28;20053;-67
2024/03/07 18:18:25;;;;;;;1999.90;999.90;;;;;;;7.48;78.95;101947.47;10417257;28;20445;-67
2024/03/07 18:23:28;;;;;;;1999.90;999.90;;;;;;;7.53;79.21;101961.22;10417033;28;20057;-67
2024/03/07 18:28:32;;;;;;;1999.90;999.90;;;;;;;7.21;79.82;101962.00;10417082;28;20056;-67
2024/03/07 18:33:34;;;;;;;1999.90;999.90;;;;;;;7.29;79.56;101960.06;10416538;28;20080;-67
2024/03/07 18:38:38;;;;;;;1999.90;999.90;;;;;;;7.18;79.77;101960.34;10416708;28;20128;-66
2024/03/07 18:43:41;;;;;;;1999.90;999.90;;;;;;;6.81;81.45;101957.78;10416415;28;20132;-67
2024/03/07 18:48:44;;;;;;;1999.90;999.90;;;;;;;6.93;80.67;101967.06;10415018;28;20403;-67
2024/03/07 18:53:47;;;;;;;1999.90;999.90;;;;;;;6.86;81.07;101963.75;10415708;28;20128;-67
2024/03/07 18:58:49;;;;;;;1999.90;999.90;;;;;;;6.67;82.03;101963.28;10415923;28;20053;-67
2024/03/07 19:03:52;;;;;;;1999.90;999.90;;;;;;;6.67;81.93;101956.34;10416335;28;20045;-67
2024/03/07 19:08:54;;;;;;;1999.90;999.90;;;;;;;6.69;82.19;101956.28;10414352;28;20132;-67
2024/03/07 19:13:57;;;;;;;1999.90;999.90;;;;;;;6.35;83.72;101951.81;10415494;28;20045;-67
2024/03/07 19:19:01;;;;;;;1999.90;999.90;;;;;;;6.23;84.65;101952.94;10415333;28;20149;-66
2024/03/07 19:24:04;;;;;;;1999.90;999.90;;;;;;;6.34;84.55;101952.72;10414924;28;20065;-66
2024/03/07 19:29:06;;;;;;;1999.90;999.90;;;;;;;6.16;85.47;101950.53;10414825;28;20092;-66
2024/03/07 19:34:09;;;;;;;1999.90;999.90;;;;;;;5.84;87.82;101941.59;10414966;28;20163;-67
2024/03/07 19:39:11;;;;;;;1999.90;999.90;;;;;;;6.02;88.24;101940.38;10414949;28;20084;-66
2024/03/07 19:44:17;;;;;;;1999.90;999.90;;;;;;;6.10;87.72;101935.88;10414384;28;20494;-66
2024/03/07 19:49:19;;;;;;;1999.90;999.90;;;;;;;5.65;88.93;101941.94;10414376;28;20618;-66
2024/03/07 19:54:24;;;;;;;1999.90;999.90;;;;;;;5.62;90.34;101933.34;10414377;28;20460;-67
2024/03/07 19:59:26;;;;;;;1999.90;999.90;;;;;;;5.79;90.03;101939.06;10414411;28;20103;-66
2024/03/07 20:04:29;;;;;;;1999.90;999.90;;;;;;;5.58;89.87;101940.31;10412922;28;20477;-66
2024/03/07 20:09:31;;;;;;;1999.90;999.90;;;;;;;5.57;89.61;101944.66;10420998;28;20045;-66
2024/03/07 20:14:33;;;;;;;1999.90;999.90;;;;;;;5.76;89.49;101942.56;10422869;28;20046;-67
2024/03/07 20:19:36;;;;;;;1999.90;999.90;;;;;;;5.35;90.63;101932.94;10422100;28;20049;-66
2024/03/07 20:24:38;;;;;;;1999.90;999.90;;;;;;;5.54;91.52;101930.88;10421874;28;20133;-66
2024/03/07 20:29:42;;;;;;;1999.90;999.90;;;;;;;5.40;92.44;101926.78;10421735;28;20045;-66
2024/03/07 20:34:45;;;;;;;1999.90;999.90;;;;;;;5.32;93.06;101920.84;10421450;28;20053;-67
2024/03/07 20:39:48;;;;;;;1999.90;999.90;;;;;;;5.01;92.64;101920.53;10420253;28;20124;-66
2024/03/07 20:45:08;;;;;;;1999.90;999.90;;;;;;;5.30;93.32;101917.44;10421420;28;20049;-66
2024/03/07 20:50:11;;;;;;;1999.90;999.90;;;;;;;4.89;94.49;101905.97;10419735;28;20051;-66
2024/03/07 20:55:22;;;;;;;1999.90;999.90;;;;;;;5.05;93.93;101908.34;10419842;28;20049;-66
2024/03/07 21:00:30;;;;;;;1999.90;999.90;;;;;;;5.06;93.53;101903.16;10420611;28;20045;-67
2024/03/07 21:05:36;;;;;;;1999.90;999.90;;;;;;;5.01;92.32;101904.97;10420404;28;20054;-66
2024/03/07 21:10:40;;;;;;;1999.90;999.90;;;;;;;5.08;91.59;101898.78;10420066;28;20420;-66
2024/03/07 21:15:44;;;;;;;1999.90;999.90;;;;;;;5.13;91.76;101903.91;10418642;28;20490;-66
2024/03/07 21:20:46;;;;;;;1999.90;999.90;;;;;;;4.73;92.40;101894.16;10419509;28;20049;-66
2024/03/07 21:25:50;;;;;;;1999.90;999.90;;;;;;;4.74;92.22;101895.84;10419389;28;20068;-67
2024/03/07 21:30:54;;;;;;;1999.90;999.90;;;;;;;4.36;94.02;101887.75;10419630;28;20045;-66
2024/03/07 21:35:57;;;;;;;1999.90;999.90;;;;;;;4.76;93.55;101888.94;10419771;28;20534;-66
2024/03/07 21:41:00;;;;;;;1999.90;999.90;;;;;;;4.59;93.47;101881.38;10418772;28;20053;-66
2024/03/07 21:46:04;;;;;;;1999.90;999.90;;;;;;;4.50;92.95;101874.59;10419021;28;20049;-66
2024/03/07 21:51:10;;;;;;;1999.90;999.90;;;;;;;4.43;92.60;101873.81;10418583;28;20085;-66
2024/03/07 21:56:12;;;;;;;1999.90;999.90;;;;;;;4.54;93.34;101876.28;10419144;28;20050;-65
2024/03/07 22:01:15;;;;;;;1999.90;999.90;;;;;;;4.32;93.88;101867.97;10418017;28;20414;-66
2024/03/07 22:06:17;;;;;;;1999.90;999.90;;;;;;;4.42;92.08;101859.16;10417931;28;20486;-65
2024/03/07 22:11:22;;;;;;;1999.90;999.90;;;;;;;4.22;93.22;101863.75;10417767;28;20052;-65
2024/03/07 22:16:27;;;;;;;1999.90;999.90;;;;;;;4.45;92.10;101856.53;10417653;28;20053;-66
2024/03/07 22:21:29;;;;;;;1999.90;999.90;;;;;;;4.26;92.29;101858.50;10417108;28;20057;-65